Dauntless Aviation
Airports North America Canada
CKH9

Kelowna General Hospital Helipad

Kelowna, CANADA

Airport Info
Suggest Updated Information for this Airport

Location

Latitude / Longitude: 49°52'27"N / 119°29'32"W
  49°52.458'N / 119°29.544'W
  49.8743 / -119.4924
Satellite photo at:
Airport distance calculator
From:
Weather Reports

METAR

CYLW
6.7nm NE
CYLW 230300Z AUTO 14005KT 9SM FEW036 OVC050 02/M02 A3011 RMK SLP219
CWUS
19.5nm S
CWUS 230300Z AUTO 24003KT 02/M03 RMK AO1 SLP218 T00211028 58017
CWJV
23.8nm N
CWJV 230300Z AUTO 10006KT M01/M02 RMK AO1 SLP217 T10141015 58013
CYYF
24.7nm S
CYYF 230300Z 18013KT 15SM -SN FEW030 SCT040 BKN070 OVC100 02/M02 A3014 RMK SF1SC2AC4AC1 SLP224

TAF

CYLW
6.7nm NE
TAF CYLW 230042Z 2301/2313 14006KT P6SM BKN060 OVC200 FM230400 16005KT P6SM -SN SCT020 OVC060 TEMPO 2305/2308 2SM -SHSN OVC020 FM230800 VRB03KT 4SM -SN OVC020 RMK FCST BASED ON AUTO OBS. NXT FCST BY 230700Z
CYYF
24.7nm S
TAF CYYF 230042Z 2301/2313 16010G20KT P6SM BKN060 OVC200 FM230300 18010KT P6SM -SN OVC040 FM230600 18010KT 2SM -SHSN OVC015 RMK NXT FCST BY 230700Z
Safelog

 

Dauntless Aviation

© 2007-2019 Dauntless Aviation, all rights reserved
Information provided via PilotNav comes from a variety of official and unofficial data sources. As errors are possible, do not use PilotNav for primary flight planning purposes. Verify any information that you receive via PilotNav with current and canonical charts and other official documents. The material in this database is subject to database copyrights held by Dauntless Aviation and may not be copied without the express permission of Dauntless Aviation - licenses for use of part of all of this data are available for purchase; enquire via the Dauntless Aviation helpdesk. A number of mechanisms and markers exist in the database to protect against and identify infringement / copyright. Automated queries against this website are stictly prohibited, and all activity is logged and analyzed.